createdAt,value
2018-04-07T00:00:32.184Z,11.50
2018-04-07T00:03:00.268Z,11.97
2018-04-07T00:05:28.368Z,11.67
2018-04-07T00:07:56.433Z,15.43
2018-04-07T00:10:24.499Z,12.10
2018-04-07T00:12:53.483Z,12.20
2018-04-07T00:15:21.577Z,11.10
2018-04-07T00:17:50.621Z,13.63
2018-04-07T00:20:19.548Z,12.00
2018-04-07T00:22:47.894Z,12.27
2018-04-07T00:25:15.965Z,12.33
2018-04-07T00:27:44.073Z,11.70
2018-04-07T00:30:13.393Z,11.50
2018-04-07T00:32:41.892Z,12.67
2018-04-07T00:35:10.992Z,13.77
2018-04-07T00:37:39.049Z,13.63
2018-04-07T00:40:07.920Z,13.00
2018-04-07T00:42:36.099Z,12.80
2018-04-07T00:45:05.117Z,12.40
2018-04-07T00:47:33.279Z,12.63
2018-04-07T00:50:01.440Z,11.97
2018-04-07T00:52:41.372Z,12.80
2018-04-07T00:55:09.453Z,15.90
2018-04-07T00:57:37.614Z,12.80
2018-04-07T01:00:05.687Z,13.03
2018-04-07T01:02:33.876Z,12.87
2018-04-07T01:05:01.969Z,14.00
2018-04-07T01:07:30.082Z,13.00
2018-04-07T01:09:58.353Z,10.97
2018-04-07T01:12:26.653Z,15.47
2018-04-07T01:14:54.725Z,12.30
2018-04-07T01:17:22.833Z,15.47
2018-04-07T01:19:51.702Z,14.00
2018-04-07T01:22:19.946Z,12.77
2018-04-07T01:24:48.023Z,13.20
2018-04-07T01:27:18.772Z,12.93
2018-04-07T01:29:46.856Z,14.47
2018-04-07T01:32:14.916Z,13.53
2018-04-07T01:34:43.083Z,14.47
2018-04-07T01:37:11.149Z,13.37
2018-04-07T01:39:39.212Z,13.03
2018-04-07T01:42:07.290Z,12.83
2018-04-07T01:44:36.112Z,14.30
2018-04-07T01:47:04.175Z,12.70
2018-04-07T01:49:32.246Z,12.83
2018-04-07T01:52:00.300Z,12.13
2018-04-07T01:54:29.124Z,13.67
2018-04-07T01:56:57.191Z,13.23
2018-04-07T01:59:26.010Z,12.60
2018-04-07T02:01:54.090Z,13.33
2018-04-07T02:04:22.908Z,16.30
2018-04-07T02:06:50.986Z,14.50
2018-04-07T02:09:19.035Z,14.03
2018-04-07T02:11:47.873Z,13.63
2018-04-07T02:14:15.942Z,17.47
2018-04-07T02:16:44.022Z,13.67
2018-04-07T02:19:12.849Z,14.13
2018-04-07T02:21:40.932Z,14.10
2018-04-07T02:24:09.036Z,13.90
2018-04-07T02:26:37.111Z,15.83
2018-04-07T02:29:05.160Z,13.77
2018-04-07T02:31:33.229Z,13.37
2018-04-07T02:34:02.054Z,15.30
2018-04-07T02:36:30.140Z,16.43
2018-04-07T02:38:58.220Z,15.03
2018-04-07T02:41:27.035Z,15.57
2018-04-07T02:43:55.097Z,14.10
2018-04-07T02:46:23.174Z,19.63
2018-04-07T02:48:52.010Z,15.63
2018-04-07T02:51:20.099Z,17.57
2018-04-07T02:53:48.154Z,14.37
2018-04-07T02:56:16.255Z,15.90
2018-04-07T02:58:44.318Z,17.87
2018-04-07T03:01:12.377Z,17.53
2018-04-07T03:03:41.231Z,17.03
2018-04-07T03:06:09.385Z,17.63
2018-04-07T03:08:38.209Z,18.00
2018-04-07T03:11:06.254Z,16.67
2018-04-07T03:13:35.087Z,17.07
2018-04-07T03:16:03.172Z,18.40
2018-04-07T03:18:31.992Z,16.63
2018-04-07T03:21:00.072Z,18.43
2018-04-07T03:23:28.133Z,17.70
2018-04-07T03:25:56.184Z,19.53
2018-04-07T03:28:25.028Z,17.63
2018-04-07T03:30:53.108Z,15.90
2018-04-07T03:33:21.165Z,16.00
2018-04-07T03:35:49.990Z,15.67
2018-04-07T03:38:18.065Z,17.67
2018-04-07T03:40:46.135Z,14.87
2018-04-07T03:43:14.963Z,17.03
2018-04-07T03:45:43.024Z,19.73
2018-04-07T03:48:11.111Z,18.37
2018-04-07T03:50:39.171Z,19.33
2018-04-07T03:53:12.175Z,18.93
2018-04-07T03:55:41.000Z,16.97
2018-04-07T03:58:09.077Z,19.10
2018-04-07T04:00:37.918Z,16.97
2018-04-07T04:03:05.972Z,18.57
2018-04-07T04:05:34.038Z,15.60
2018-04-07T04:08:02.867Z,15.93
2018-04-07T04:10:30.935Z,18.37
2018-04-07T04:12:59.007Z,18.57
2018-04-07T04:15:27.832Z,19.47
2018-04-07T04:17:55.928Z,19.77
2018-04-07T04:20:24.208Z,18.57
2018-04-07T04:22:52.322Z,20.87
2018-04-07T04:25:20.463Z,17.97
2018-04-07T04:27:48.558Z,20.57
2018-04-07T04:30:16.625Z,19.50
2018-04-07T04:32:44.699Z,18.63
2018-04-07T04:35:13.508Z,22.93
2018-04-07T04:37:41.594Z,17.83
2018-04-07T04:40:09.644Z,17.77
2018-04-07T04:42:37.708Z,18.10
2018-04-07T04:45:05.770Z,17.83
2018-04-07T04:47:33.835Z,19.77
2018-04-07T04:50:01.888Z,20.23
2018-04-07T04:52:30.735Z,19.80
2018-04-07T04:54:58.791Z,23.97
2018-04-07T04:57:26.868Z,21.10
2018-04-07T04:59:55.698Z,19.43
2018-04-07T05:02:23.810Z,20.00
2018-04-07T05:04:51.875Z,23.83
2018-04-07T05:07:19.941Z,24.23
2018-04-07T05:09:48.115Z,26.03
2018-04-07T05:12:16.176Z,27.83
2018-04-07T05:14:45.029Z,23.23
2018-04-07T05:17:13.092Z,24.07
2018-04-07T05:19:41.168Z,22.13
2018-04-07T05:22:09.229Z,21.73
2018-04-07T05:24:38.059Z,25.03
2018-04-07T05:27:06.138Z,23.33
2018-04-07T05:29:34.199Z,22.80
2018-04-07T05:32:03.043Z,22.63
2018-04-07T05:34:31.109Z,27.70
2018-04-07T05:36:59.159Z,30.47
2018-04-07T05:39:28.291Z,28.70
2018-04-07T05:41:57.117Z,32.10
2018-04-07T05:44:25.198Z,24.83
2018-04-07T05:46:53.264Z,23.30
2018-04-07T05:49:21.311Z,25.03
2018-04-07T05:51:49.373Z,22.70
2018-04-07T05:54:17.491Z,22.73
2018-04-07T05:56:46.312Z,21.27
2018-04-07T05:59:14.368Z,23.37
2018-04-07T06:01:42.441Z,22.30
2018-04-07T06:04:10.514Z,20.83
2018-04-07T06:06:38.594Z,22.27
2018-04-07T06:09:06.674Z,24.83
2018-04-07T06:11:34.724Z,25.97
2018-04-07T06:14:02.800Z,28.20
2018-04-07T06:16:30.852Z,20.53
2018-04-07T06:18:58.916Z,22.53
2018-04-07T06:21:26.995Z,25.20
2018-04-07T06:23:55.063Z,24.53
2018-04-07T06:26:23.117Z,27.03
2018-04-07T06:28:51.327Z,23.40
2018-04-07T06:31:19.311Z,24.53
2018-04-07T06:33:47.414Z,22.77
2018-04-07T06:36:15.478Z,22.70
2018-04-07T06:38:43.554Z,24.27
2018-04-07T06:41:11.613Z,22.70
2018-04-07T06:43:39.676Z,31.23
2018-04-07T06:46:09.137Z,33.53
2018-04-07T06:48:37.191Z,27.20
2018-04-07T06:51:05.262Z,22.10
2018-04-07T06:53:33.338Z,23.93
2018-04-07T06:56:01.393Z,23.73
2018-04-07T06:58:29.440Z,20.73
2018-04-07T07:00:57.511Z,20.27
2018-04-07T07:03:25.568Z,23.03
2018-04-07T07:05:53.631Z,19.83
2018-04-07T07:08:21.724Z,19.13
2018-04-07T07:10:49.808Z,19.80
2018-04-07T07:13:17.869Z,20.67
2018-04-07T07:15:45.932Z,23.17
2018-04-07T07:18:14.044Z,20.77
2018-04-07T07:20:42.088Z,21.37
2018-04-07T07:23:10.147Z,22.77
2018-04-07T07:25:38.992Z,19.03
2018-04-07T07:28:07.049Z,17.60
2018-04-07T07:30:35.128Z,20.20
2018-04-07T07:33:03.182Z,19.60
2018-04-07T07:35:31.262Z,21.47
2018-04-07T07:37:59.323Z,18.20
2018-04-07T07:40:27.380Z,19.17
2018-04-07T07:42:56.614Z,17.57
2018-04-07T07:45:24.690Z,18.20
2018-04-07T07:47:52.756Z,18.40
2018-04-07T07:50:20.834Z,20.83
2018-04-07T07:52:48.912Z,16.30
2018-04-07T07:55:18.430Z,17.57
2018-04-07T07:57:46.512Z,16.57
2018-04-07T08:00:14.599Z,17.37
2018-04-07T08:02:42.675Z,18.33
2018-04-07T08:05:11.519Z,18.50
2018-04-07T08:07:39.591Z,18.77
2018-04-07T08:10:07.685Z,17.27
2018-04-07T08:12:35.754Z,17.17
2018-04-07T08:15:03.832Z,16.00
2018-04-07T08:17:31.900Z,24.73
2018-04-07T08:20:00.006Z,17.43
2018-04-07T08:22:28.075Z,17.07
2018-04-07T08:24:56.143Z,19.73
2018-04-07T08:27:24.214Z,19.73
2018-04-07T08:29:53.047Z,23.60
2018-04-07T08:32:21.202Z,22.67
2018-04-07T08:34:50.049Z,19.27
2018-04-07T08:37:18.129Z,21.30
2018-04-07T08:39:46.338Z,19.53
2018-04-07T08:42:14.411Z,23.23
2018-04-07T08:44:42.485Z,20.53
2018-04-07T08:47:10.547Z,17.47
2018-04-07T08:49:38.630Z,16.83
2018-04-07T08:52:06.806Z,20.70
2018-04-07T08:54:34.835Z,18.87
2018-04-07T08:57:02.917Z,20.27
2018-04-07T08:59:30.994Z,20.57
2018-04-07T09:01:59.073Z,18.40
2018-04-07T09:04:27.166Z,17.23
2018-04-07T09:06:55.232Z,20.40
2018-04-07T09:09:24.052Z,18.53
2018-04-07T09:11:52.146Z,16.87
2018-04-07T09:14:20.206Z,16.77
2018-04-07T09:16:48.283Z,17.27
2018-04-07T09:19:16.365Z,17.63
2018-04-07T09:21:44.436Z,15.30
2018-04-07T09:24:12.540Z,15.53
2018-04-07T09:26:40.620Z,17.00
2018-04-07T09:29:08.686Z,14.60
2018-04-07T09:31:36.770Z,14.23
2018-04-07T09:34:04.851Z,13.57
2018-04-07T09:36:33.704Z,13.23
2018-04-07T09:39:01.806Z,12.67
2018-04-07T09:41:29.922Z,11.80
2018-04-07T09:43:58.003Z,32.17
2018-04-07T09:46:26.085Z,11.68
2018-04-07T09:48:54.922Z,10.90
2018-04-07T09:51:22.998Z,10.68
2018-04-07T09:53:51.060Z,10.40
2018-04-07T09:56:19.132Z,14.10
2018-04-07T09:58:47.964Z,9.68
2018-04-07T10:01:16.038Z,16.52
2018-04-07T10:03:44.108Z,10.23
2018-04-07T10:06:12.188Z,9.25
2018-04-07T10:08:40.278Z,9.52
2018-04-07T10:11:08.361Z,9.32
2018-04-07T10:13:36.451Z,8.90
2018-04-07T10:16:04.483Z,8.55
2018-04-07T10:18:32.566Z,9.73
2018-04-07T10:21:00.698Z,10.55
2018-04-07T10:23:28.753Z,9.57
2018-04-07T10:25:56.804Z,12.35
2018-04-07T10:28:24.874Z,11.23
2018-04-07T10:30:54.970Z,12.63
2018-04-07T10:33:23.055Z,12.83
2018-04-07T10:35:51.883Z,10.77
2018-04-07T10:38:19.942Z,12.13
2018-04-07T10:40:48.013Z,10.37
2018-04-07T10:43:16.841Z,14.90
2018-04-07T10:45:44.913Z,11.23
2018-04-07T10:48:12.994Z,10.57
2018-04-07T10:50:41.859Z,16.97
2018-04-07T10:53:09.912Z,11.20
2018-04-07T10:55:38.742Z,10.00
2018-04-07T10:58:06.813Z,10.90
2018-04-07T11:00:34.893Z,11.03
2018-04-07T11:03:02.970Z,13.83
2018-04-07T11:05:31.035Z,12.53
2018-04-07T11:07:59.223Z,15.47
2018-04-07T11:10:27.335Z,14.60
2018-04-07T11:12:55.398Z,21.70
2018-04-07T11:15:23.456Z,12.30
2018-04-07T11:17:51.552Z,11.20
2018-04-07T11:20:20.310Z,12.13
2018-04-07T11:22:48.396Z,12.33
2018-04-07T11:25:17.230Z,12.63
2018-04-07T11:27:45.309Z,21.03
2018-04-07T11:30:13.373Z,10.80
2018-04-07T11:32:42.209Z,10.70
2018-04-07T11:35:10.281Z,12.17
2018-04-07T11:37:38.355Z,12.27
2018-04-07T11:40:06.436Z,10.47
2018-04-07T11:42:34.508Z,11.07
2018-04-07T11:45:03.349Z,13.50
2018-04-07T11:47:31.416Z,15.43
2018-04-07T11:49:59.496Z,13.53
2018-04-07T11:52:27.578Z,13.20
2018-04-07T11:54:56.576Z,12.53
2018-04-07T11:57:24.745Z,12.53
2018-04-07T11:59:53.759Z,13.93
2018-04-07T12:02:22.650Z,12.00
2018-04-07T12:04:50.706Z,13.83
2018-04-07T12:07:18.768Z,11.57
2018-04-07T12:09:46.850Z,15.90
2018-04-07T12:12:14.903Z,13.03
2018-04-07T12:14:43.002Z,15.40
2018-04-07T12:17:11.082Z,14.00
2018-04-07T12:19:39.158Z,13.93
2018-04-07T12:22:07.232Z,14.53
2018-04-07T12:24:36.062Z,15.10
2018-04-07T12:27:04.133Z,12.80
2018-04-07T12:29:32.560Z,16.33
2018-04-07T12:32:00.623Z,14.57
2018-04-07T12:34:28.683Z,16.40
2018-04-07T12:36:56.782Z,16.53
2018-04-07T12:39:24.848Z,17.23
2018-04-07T12:41:53.008Z,16.00
2018-04-07T12:44:21.088Z,15.87
2018-04-07T12:46:49.157Z,18.13
2018-04-07T12:49:17.225Z,15.70
2018-04-07T12:51:45.320Z,15.33
2018-04-07T12:54:13.422Z,13.97
2018-04-07T12:56:41.472Z,32.43
2018-04-07T12:59:09.545Z,16.03
2018-04-07T13:01:37.621Z,18.53
2018-04-07T13:04:05.707Z,20.80
2018-04-07T13:06:33.806Z,15.50
2018-04-07T13:09:01.878Z,17.27
2018-04-07T13:11:29.946Z,20.30
2018-04-07T13:13:58.022Z,16.17
2018-04-07T13:16:26.124Z,15.77
2018-04-07T13:18:54.975Z,16.43
2018-04-07T13:21:23.056Z,17.00
2018-04-07T13:23:51.128Z,16.43
2018-04-07T13:26:19.208Z,14.30
2018-04-07T13:28:47.318Z,15.83
2018-04-07T13:31:15.380Z,16.37
2018-04-07T13:33:43.450Z,15.73
2018-04-07T13:36:11.524Z,16.63
2018-04-07T13:38:39.610Z,18.70
2018-04-07T13:41:07.704Z,19.20
2018-04-07T13:43:35.821Z,35.00
2018-04-07T13:46:03.878Z,13.87
2018-04-07T13:48:31.938Z,17.40
2018-04-07T13:51:00.007Z,16.63
2018-04-07T13:53:28.085Z,16.70
2018-04-07T13:55:56.144Z,17.50
2018-04-07T13:58:24.208Z,16.60
2018-04-07T14:00:52.278Z,19.83
2018-04-07T14:03:20.362Z,21.90
2018-04-07T14:05:48.421Z,19.07
2018-04-07T14:08:16.497Z,15.63
2018-04-07T14:10:44.600Z,22.80
2018-04-07T14:13:14.237Z,17.73
2018-04-07T14:15:42.336Z,14.20
2018-04-07T14:18:10.556Z,18.17
2018-04-07T14:20:38.616Z,12.83
2018-04-07T14:23:07.452Z,13.00
2018-04-07T14:25:35.538Z,17.13
2018-04-07T14:28:03.618Z,17.47
2018-04-07T14:30:31.689Z,14.73
2018-04-07T14:33:00.554Z,16.57
2018-04-07T14:35:28.625Z,11.63
2018-04-07T14:37:56.709Z,20.70
2018-04-07T14:40:24.756Z,11.40
2018-04-07T14:42:52.938Z,14.40
2018-04-07T14:45:20.991Z,14.13
2018-04-07T14:47:49.839Z,12.63
2018-04-07T14:50:17.919Z,14.83
2018-04-07T14:52:45.984Z,10.43
2018-04-07T14:55:14.065Z,12.83
2018-04-07T14:57:42.116Z,10.00
2018-04-07T15:00:10.189Z,10.87
2018-04-07T15:02:38.239Z,12.67
2018-04-07T15:05:07.072Z,10.20
2018-04-07T15:07:35.139Z,9.83
2018-04-07T15:10:03.206Z,10.50
2018-04-07T15:12:31.263Z,10.20
2018-04-07T15:14:59.333Z,7.47
2018-04-07T15:17:28.217Z,9.50
2018-04-07T15:19:57.892Z,8.23
2018-04-07T15:22:26.203Z,10.53
2018-04-07T15:24:55.299Z,7.77
2018-04-07T15:27:24.699Z,9.73
2018-04-07T15:29:53.636Z,8.30
2018-04-07T15:32:22.580Z,10.07
2018-04-07T15:34:51.486Z,9.20
2018-04-07T15:37:20.402Z,10.90
2018-04-07T15:39:50.927Z,6.10
2018-04-07T15:42:18.971Z,7.27
2018-04-07T15:44:47.050Z,7.33
2018-04-07T15:47:15.484Z,9.33
2018-04-07T15:49:43.963Z,9.37
2018-04-07T15:52:12.016Z,7.20
2018-04-07T15:54:40.091Z,8.93
2018-04-07T15:57:08.140Z,6.17
2018-04-07T15:59:36.217Z,8.73
2018-04-07T16:02:05.063Z,17.03
2018-04-07T16:04:33.116Z,5.73
2018-04-07T16:07:01.206Z,6.30
2018-04-07T16:09:29.280Z,7.10
2018-04-07T16:11:58.185Z,9.57
2018-04-07T16:14:26.257Z,10.20
2018-04-07T16:28:33.668Z,8.60
2018-04-07T16:31:01.724Z,7.07
2018-04-07T16:33:30.538Z,7.63
2018-04-07T16:35:58.598Z,8.03
2018-04-07T16:38:26.638Z,11.43
2018-04-07T16:40:54.712Z,10.17
2018-04-07T16:43:22.775Z,12.60
2018-04-07T16:45:50.847Z,8.67
2018-04-07T16:48:19.676Z,8.37
2018-04-07T16:50:47.739Z,12.83
2018-04-07T16:53:15.792Z,9.50
2018-04-07T16:55:43.837Z,8.23
2018-04-07T16:58:11.886Z,8.43
2018-04-07T17:00:40.699Z,9.33
2018-04-07T17:03:08.806Z,8.17
2018-04-07T17:05:36.856Z,8.30
2018-04-07T17:08:05.607Z,6.40
2018-04-07T17:53:09.491Z,10.37
2018-04-07T17:55:37.665Z,8.90
2018-04-07T17:58:05.881Z,11.87
2018-04-07T18:00:34.065Z,12.07
2018-04-07T18:03:02.269Z,11.27
2018-04-07T18:05:30.503Z,12.83
2018-04-07T18:07:58.689Z,11.87
2018-04-07T18:10:26.884Z,12.63
2018-04-07T18:12:55.153Z,12.90
2018-04-07T18:15:23.356Z,12.13
2018-04-07T18:17:51.641Z,14.50
2018-04-07T18:20:20.166Z,10.90
2018-04-07T18:22:49.221Z,14.47
2018-04-07T18:25:17.683Z,13.37
2018-04-07T18:27:46.044Z,12.90
2018-04-07T18:30:14.492Z,12.77
2018-04-07T18:32:43.749Z,11.33
2018-04-07T18:35:12.167Z,11.83
2018-04-07T18:37:40.445Z,14.30
2018-04-07T18:40:08.855Z,12.63
2018-04-07T18:42:37.394Z,11.77
2018-04-07T18:45:06.525Z,13.63
2018-04-07T18:47:34.791Z,15.00
2018-04-07T18:50:03.171Z,13.70
2018-04-07T18:52:31.400Z,12.93
2018-04-07T18:55:01.288Z,17.80
2018-04-07T18:57:31.002Z,17.43
2018-04-07T18:59:59.954Z,15.07
2018-04-07T19:02:29.384Z,13.67
2018-04-07T19:04:57.816Z,11.93
2018-04-07T19:07:26.420Z,14.57
2018-04-07T19:09:57.891Z,12.63
2018-04-07T19:12:29.192Z,11.77
2018-04-07T19:14:57.514Z,11.10
2018-04-07T19:17:25.987Z,14.23
2018-04-07T19:19:54.602Z,14.97
2018-04-07T19:22:23.478Z,14.20
2018-04-07T19:24:52.350Z,14.80
2018-04-07T19:27:20.935Z,14.83
2018-04-07T19:29:49.485Z,20.50
2018-04-07T19:32:19.056Z,15.43
2018-04-07T19:34:49.065Z,16.43
2018-04-07T19:37:19.064Z,16.17
2018-04-07T19:39:47.731Z,13.20
2018-04-07T19:42:16.585Z,13.07
2018-04-07T19:44:46.292Z,13.23
2018-04-07T19:47:16.309Z,15.83
2018-04-07T19:49:45.590Z,16.30
2018-04-07T19:52:16.110Z,16.33
2018-04-07T19:54:45.540Z,14.80
2018-04-07T19:57:18.050Z,18.50
2018-04-07T19:59:48.360Z,17.37
2018-04-07T20:02:17.114Z,15.37
2018-04-07T20:04:46.580Z,17.50
2018-04-07T20:07:14.972Z,15.10
2018-04-07T20:09:43.160Z,13.73
2018-04-07T20:12:11.482Z,13.53
2018-04-07T20:14:39.694Z,15.37
2018-04-07T20:17:08.180Z,12.47
2018-04-07T20:19:36.462Z,14.00
2018-04-07T20:22:05.496Z,13.07
2018-04-07T20:24:33.685Z,12.37
2018-04-07T20:27:01.958Z,15.47
2018-04-07T20:29:30.264Z,14.47
2018-04-07T20:31:59.331Z,15.87
2018-04-07T20:34:27.585Z,14.37
2018-04-07T20:36:55.900Z,21.67
2018-04-07T20:39:24.138Z,12.77
2018-04-07T20:41:52.366Z,12.07
2018-04-07T20:44:38.282Z,11.80
2018-04-07T20:47:06.836Z,15.33
2018-04-07T20:49:35.052Z,12.17
2018-04-07T20:52:04.418Z,14.30
2018-04-07T20:54:32.665Z,11.30
2018-04-07T20:57:01.088Z,11.87
2018-04-07T20:59:29.393Z,12.30
2018-04-07T21:01:58.370Z,11.50
2018-04-07T21:04:27.745Z,11.93
2018-04-07T21:06:56.110Z,12.40
2018-04-07T21:09:24.309Z,13.37
2018-04-07T21:11:52.996Z,13.23
2018-04-07T21:14:21.291Z,12.73
2018-04-07T21:16:49.619Z,12.70
2018-04-07T21:19:18.108Z,10.80
2018-04-07T21:21:47.110Z,12.40
2018-04-07T21:24:15.333Z,12.67
2018-04-07T21:26:44.398Z,11.27
2018-04-07T21:29:12.608Z,11.50
2018-04-07T21:31:41.108Z,12.47
2018-04-07T21:34:10.151Z,13.23
2018-04-07T21:36:38.422Z,10.53
2018-04-07T21:39:07.299Z,13.40
2018-04-07T21:41:35.521Z,11.47
2018-04-07T21:44:04.857Z,17.60
2018-04-07T21:46:33.837Z,13.80
2018-04-07T21:49:02.171Z,16.23
2018-04-07T21:51:30.369Z,15.13
2018-04-07T21:53:58.916Z,10.83
2018-04-07T21:56:27.281Z,12.30
2018-04-07T21:58:55.530Z,12.30
2018-04-07T22:01:23.738Z,13.10
2018-04-07T22:03:51.866Z,12.20
2018-04-07T22:06:20.063Z,12.10
2018-04-07T22:08:48.319Z,12.13
2018-04-07T22:11:18.213Z,11.43
2018-04-07T22:13:46.503Z,15.20
2018-04-07T22:16:14.652Z,13.57
2018-04-07T22:18:42.799Z,15.57
2018-04-07T22:21:14.778Z,13.97
2018-04-07T22:23:42.956Z,12.63
2018-04-07T22:26:11.919Z,13.53
2018-04-07T22:28:40.109Z,12.80
2018-04-07T22:31:09.159Z,12.33
2018-04-07T22:33:37.335Z,16.03
2018-04-07T22:36:05.572Z,14.40
2018-04-07T22:38:33.721Z,14.37
2018-04-07T22:41:02.026Z,11.90
2018-04-07T22:43:30.954Z,10.73
2018-04-07T22:45:59.230Z,14.37
2018-04-07T22:48:27.491Z,14.37
2018-04-07T22:50:55.705Z,14.43
2018-04-07T22:53:23.904Z,12.27
2018-04-07T22:55:52.280Z,14.47
2018-04-07T22:58:20.494Z,10.13
2018-04-07T23:00:48.675Z,12.90
2018-04-07T23:03:16.957Z,14.33
2018-04-07T23:05:45.143Z,10.70
2018-04-07T23:08:13.388Z,11.00
2018-04-07T23:10:41.597Z,11.27
2018-04-07T23:13:10.678Z,10.57
2018-04-07T23:15:39.848Z,12.13
2018-04-07T23:18:08.072Z,19.77
2018-04-07T23:20:36.238Z,12.57
2018-04-07T23:23:07.213Z,16.10
2018-04-07T23:25:35.333Z,12.50
2018-04-07T23:28:04.277Z,10.87
2018-04-07T23:30:32.422Z,11.10
2018-04-07T23:33:00.596Z,11.80
2018-04-07T23:35:29.278Z,13.13
2018-04-07T23:38:00.606Z,12.60
2018-04-07T23:40:28.806Z,11.20
2018-04-07T23:42:57.007Z,13.10
2018-04-07T23:45:26.118Z,10.70
2018-04-07T23:47:54.334Z,14.53
2018-04-07T23:50:23.296Z,14.30
2018-04-07T23:52:51.563Z,11.60
2018-04-07T23:55:19.739Z,12.13
2018-04-07T23:57:47.866Z,10.87
